createdAt,value
2018-12-15T00:00:52.747Z,1026.18
2018-12-15T00:01:52.750Z,1026.19
2018-12-15T00:02:52.765Z,1026.16
2018-12-15T00:03:52.787Z,1026.13
2018-12-15T00:04:52.796Z,1026.18
2018-12-15T00:05:52.820Z,1026.18
2018-12-15T00:06:52.852Z,1026.16
2018-12-15T00:07:52.844Z,1026.17
2018-12-15T00:08:52.866Z,1026.14
2018-12-15T00:09:52.904Z,1026.20
2018-12-15T00:10:52.917Z,1026.16
2018-12-15T00:11:52.924Z,1026.23
2018-12-15T00:12:52.936Z,1026.20
2018-12-15T00:13:52.955Z,1026.18
2018-12-15T00:14:52.975Z,1026.22
2018-12-15T00:15:52.992Z,1026.17
2018-12-15T00:16:53.001Z,1026.14
2018-12-15T00:17:53.016Z,1026.16
2018-12-15T00:18:53.041Z,1026.15
2018-12-15T00:19:53.079Z,1026.16
2018-12-15T00:20:53.085Z,1026.19
2018-12-15T00:21:53.083Z,1026.17
2018-12-15T00:22:53.103Z,1026.18
2018-12-15T00:23:53.166Z,1026.16
2018-12-15T00:24:53.143Z,1026.14
2018-12-15T00:25:53.177Z,1026.12
2018-12-15T00:26:53.238Z,1026.13
2018-12-15T00:27:53.203Z,1026.11
2018-12-15T00:28:53.206Z,1026.17
2018-12-15T00:29:53.217Z,1026.13
2018-12-15T00:30:53.261Z,1026.15
2018-12-15T00:31:53.272Z,1026.17
2018-12-15T00:32:53.273Z,1026.15
2018-12-15T00:33:53.290Z,1026.13
2018-12-15T00:34:53.317Z,1026.16
2018-12-15T00:35:53.316Z,1026.19
2018-12-15T00:36:53.348Z,1026.13
2018-12-15T00:37:53.357Z,1026.19
2018-12-15T00:38:53.376Z,1026.22
2018-12-15T00:39:53.424Z,1026.19
2018-12-15T00:40:53.408Z,1026.27
2018-12-15T00:41:53.440Z,1026.24
2018-12-15T00:42:53.452Z,1026.23
2018-12-15T00:43:53.456Z,1026.24
2018-12-15T00:44:53.489Z,1026.26
2018-12-15T00:45:53.501Z,1026.27
2018-12-15T00:46:53.531Z,1026.27
2018-12-15T00:47:53.533Z,1026.29
2018-12-15T00:48:53.615Z,1026.32
2018-12-15T00:49:53.674Z,1026.27
2018-12-15T00:50:53.575Z,1026.27
2018-12-15T00:51:53.685Z,1026.28
2018-12-15T00:52:53.624Z,1026.26
2018-12-15T00:53:53.629Z,1026.26
2018-12-15T00:54:53.664Z,1026.30
2018-12-15T00:55:53.667Z,1026.30
2018-12-15T00:56:53.680Z,1026.32
2018-12-15T00:57:53.704Z,1026.29
2018-12-15T00:58:53.714Z,1026.30
2018-12-15T00:59:53.728Z,1026.32
2018-12-15T01:00:53.750Z,1026.33
2018-12-15T01:01:53.769Z,1026.33
2018-12-15T01:02:53.796Z,1026.36
2018-12-15T01:03:53.803Z,1026.35
2018-12-15T01:04:53.827Z,1026.37
2018-12-15T01:05:53.845Z,1026.35
2018-12-15T01:06:53.860Z,1026.37
2018-12-15T01:07:53.880Z,1026.37
2018-12-15T01:08:53.905Z,1026.34
2018-12-15T01:09:53.895Z,1026.33
2018-12-15T01:10:53.919Z,1026.38
2018-12-15T01:11:53.969Z,1026.34
2018-12-15T01:12:53.957Z,1026.39
2018-12-15T01:13:53.969Z,1026.41
2018-12-15T01:14:53.995Z,1026.41
2018-12-15T01:15:54.022Z,1026.40
2018-12-15T01:16:54.025Z,1026.38
2018-12-15T01:17:54.029Z,1026.36
2018-12-15T01:18:54.077Z,1026.38
2018-12-15T01:19:54.076Z,1026.38
2018-12-15T01:20:54.080Z,1026.38
2018-12-15T01:21:54.104Z,1026.39
2018-12-15T01:22:54.122Z,1026.35
2018-12-15T01:23:54.150Z,1026.38
2018-12-15T01:24:54.158Z,1026.38
2018-12-15T01:25:54.178Z,1026.42
2018-12-15T01:26:54.200Z,1026.40
2018-12-15T01:27:54.204Z,1026.42
2018-12-15T01:28:54.243Z,1026.40
2018-12-15T01:29:54.251Z,1026.42
2018-12-15T01:30:54.254Z,1026.40
2018-12-15T01:31:54.283Z,1026.39
2018-12-15T01:32:54.286Z,1026.41
2018-12-15T01:33:54.321Z,1026.39
2018-12-15T01:34:54.331Z,1026.41
2018-12-15T01:35:54.341Z,1026.41
2018-12-15T01:36:54.379Z,1026.39
2018-12-15T01:37:54.452Z,1026.42
2018-12-15T01:38:54.389Z,1026.45
2018-12-15T01:39:54.424Z,1026.43
2018-12-15T01:40:54.425Z,1026.47
2018-12-15T01:41:54.445Z,1026.46
2018-12-15T01:42:54.457Z,1026.44
2018-12-15T01:43:54.484Z,1026.47
2018-12-15T01:44:54.495Z,1026.47
2018-12-15T01:45:54.537Z,1026.45
2018-12-15T01:46:54.526Z,1026.45
2018-12-15T01:47:54.556Z,1026.44
2018-12-15T01:48:54.559Z,1026.46
2018-12-15T01:49:54.592Z,1026.47
2018-12-15T01:50:54.604Z,1026.42
2018-12-15T01:51:54.610Z,1026.40
2018-12-15T01:52:54.718Z,1026.41
2018-12-15T01:53:54.644Z,1026.40
2018-12-15T01:54:54.678Z,1026.37
2018-12-15T01:55:54.685Z,1026.34
2018-12-15T01:56:54.693Z,1026.35
2018-12-15T01:57:54.717Z,1026.34
2018-12-15T01:58:54.780Z,1026.36
2018-12-15T01:59:54.769Z,1026.35
2018-12-15T02:00:54.785Z,1026.32
2018-12-15T02:01:54.779Z,1026.32
2018-12-15T02:02:54.796Z,1026.35
2018-12-15T02:03:54.814Z,1026.37
2018-12-15T02:04:54.846Z,1026.33
2018-12-15T02:05:54.861Z,1026.35
2018-12-15T02:06:54.877Z,1026.33
2018-12-15T02:07:54.897Z,1026.34
2018-12-15T02:08:54.904Z,1026.35
2018-12-15T02:09:54.926Z,1026.36
2018-12-15T02:10:54.948Z,1026.34
2018-12-15T02:11:54.954Z,1026.34
2018-12-15T02:12:54.958Z,1026.31
2018-12-15T02:13:54.982Z,1026.31
2018-12-15T02:14:55.006Z,1026.30
2018-12-15T02:15:55.030Z,1026.34
2018-12-15T02:16:55.043Z,1026.35
2018-12-15T02:17:55.058Z,1026.34
2018-12-15T02:18:55.066Z,1026.35
2018-12-15T02:19:55.092Z,1026.37
2018-12-15T02:20:55.099Z,1026.36
2018-12-15T02:21:55.122Z,1026.36
2018-12-15T02:22:55.137Z,1026.34
2018-12-15T02:23:55.153Z,1026.36
2018-12-15T02:24:55.175Z,1026.38
2018-12-15T02:25:55.197Z,1026.33
2018-12-15T02:26:55.222Z,1026.35
2018-12-15T02:27:55.225Z,1026.35
2018-12-15T02:28:55.239Z,1026.34
2018-12-15T02:29:55.258Z,1026.29
2018-12-15T02:30:55.273Z,1026.31
2018-12-15T02:31:55.303Z,1026.31
2018-12-15T02:32:55.309Z,1026.30
2018-12-15T02:33:55.321Z,1026.30
2018-12-15T02:34:55.336Z,1026.30
2018-12-15T02:35:55.376Z,1026.26
2018-12-15T02:36:55.385Z,1026.31
2018-12-15T02:37:55.392Z,1026.32
2018-12-15T02:38:55.405Z,1026.33
2018-12-15T02:39:55.420Z,1026.30
2018-12-15T02:40:55.454Z,1026.30
2018-12-15T02:41:55.456Z,1026.30
2018-12-15T02:42:55.488Z,1026.29
2018-12-15T02:43:55.488Z,1026.30
2018-12-15T02:44:55.526Z,1026.33
2018-12-15T02:45:55.526Z,1026.29
2018-12-15T02:46:55.554Z,1026.29
2018-12-15T02:47:55.564Z,1026.30
2018-12-15T02:48:55.588Z,1026.32
2018-12-15T02:49:55.593Z,1026.27
2018-12-15T02:50:55.614Z,1026.28
2018-12-15T02:51:55.628Z,1026.28
2018-12-15T02:52:55.662Z,1026.30
2018-12-15T02:53:55.667Z,1026.29
2018-12-15T02:54:55.672Z,1026.25
2018-12-15T02:55:55.707Z,1026.24
2018-12-15T02:56:55.733Z,1026.22
2018-12-15T02:57:55.741Z,1026.24
2018-12-15T02:58:55.750Z,1026.24
2018-12-15T02:59:55.761Z,1026.22
2018-12-15T03:00:55.775Z,1026.20
2018-12-15T03:01:55.799Z,1026.22
2018-12-15T03:02:55.813Z,1026.20
2018-12-15T03:03:55.831Z,1026.25
2018-12-15T03:04:55.866Z,1026.23
2018-12-15T03:05:55.873Z,1026.25
2018-12-15T03:06:55.877Z,1026.31
2018-12-15T03:07:55.912Z,1026.30
2018-12-15T03:08:55.920Z,1026.29
2018-12-15T03:09:55.930Z,1026.27
2018-12-15T03:10:55.950Z,1026.29
2018-12-15T03:11:55.973Z,1026.26
2018-12-15T03:12:55.980Z,1026.30
2018-12-15T03:13:56.014Z,1026.29
2018-12-15T03:14:56.021Z,1026.27
2018-12-15T03:15:56.047Z,1026.26
2018-12-15T03:16:56.062Z,1026.31
2018-12-15T03:17:56.067Z,1026.30
2018-12-15T03:18:56.093Z,1026.32
2018-12-15T03:19:56.102Z,1026.32
2018-12-15T03:20:56.115Z,1026.32
2018-12-15T03:21:56.145Z,1026.36
2018-12-15T03:22:56.147Z,1026.35
2018-12-15T03:23:56.162Z,1026.39
2018-12-15T03:24:56.188Z,1026.34
2018-12-15T03:25:56.200Z,1026.38
2018-12-15T03:26:56.219Z,1026.34
2018-12-15T03:27:56.231Z,1026.36
2018-12-15T03:28:56.267Z,1026.39
2018-12-15T03:29:56.280Z,1026.41
2018-12-15T03:30:56.295Z,1026.40
2018-12-15T03:31:56.305Z,1026.40
2018-12-15T03:32:56.322Z,1026.42
2018-12-15T03:33:56.337Z,1026.42
2018-12-15T03:34:56.349Z,1026.43
2018-12-15T03:35:56.395Z,1026.40
2018-12-15T03:36:56.384Z,1026.45
2018-12-15T03:37:56.402Z,1026.39
2018-12-15T03:38:56.421Z,1026.44
2018-12-15T03:39:56.437Z,1026.43
2018-12-15T03:40:56.456Z,1026.41
2018-12-15T03:41:56.489Z,1026.40
2018-12-15T03:42:56.498Z,1026.36
2018-12-15T03:43:56.503Z,1026.36
2018-12-15T03:44:56.521Z,1026.38
2018-12-15T03:45:56.551Z,1026.36
2018-12-15T03:46:56.567Z,1026.37
2018-12-15T03:47:56.625Z,1026.34
2018-12-15T03:48:56.593Z,1026.33
2018-12-15T03:49:56.604Z,1026.33
2018-12-15T03:50:56.620Z,1026.36
2018-12-15T03:51:56.642Z,1026.39
2018-12-15T03:52:56.661Z,1026.37
2018-12-15T03:53:56.679Z,1026.39
2018-12-15T03:54:56.701Z,1026.41
2018-12-15T03:55:56.738Z,1026.40
2018-12-15T03:56:56.734Z,1026.45
2018-12-15T03:57:56.746Z,1026.39
2018-12-15T03:58:56.766Z,1026.42
2018-12-15T03:59:56.776Z,1026.45
2018-12-15T04:00:56.817Z,1026.40
2018-12-15T04:01:56.909Z,1026.41
2018-12-15T04:02:56.936Z,1026.41
2018-12-15T04:03:56.843Z,1026.40
2018-12-15T04:04:56.860Z,1026.39
2018-12-15T04:05:56.873Z,1026.37
2018-12-15T04:06:56.895Z,1026.39
2018-12-15T04:07:56.916Z,1026.37
2018-12-15T04:08:56.927Z,1026.41
2018-12-15T04:09:56.955Z,1026.39
2018-12-15T04:10:56.954Z,1026.39
2018-12-15T04:11:56.989Z,1026.41
2018-12-15T04:12:57.006Z,1026.41
2018-12-15T04:13:57.017Z,1026.38
2018-12-15T04:14:57.037Z,1026.37
2018-12-15T04:15:57.046Z,1026.35
2018-12-15T04:16:57.062Z,1026.36
2018-12-15T04:18:03.488Z,1026.38
2018-12-15T04:18:57.097Z,1026.36
2018-12-15T04:19:57.114Z,1026.36
2018-12-15T04:20:57.130Z,1026.39
2018-12-15T04:21:57.162Z,1026.39
2018-12-15T04:22:57.178Z,1026.30
2018-12-15T04:23:57.182Z,1026.34
2018-12-15T04:24:57.195Z,1026.33
2018-12-15T04:25:57.215Z,1026.33
2018-12-15T04:26:57.233Z,1026.31
2018-12-15T04:27:57.265Z,1026.33
2018-12-15T04:28:57.279Z,1026.33
2018-12-15T04:29:57.285Z,1026.35
2018-12-15T04:30:57.299Z,1026.38
2018-12-15T04:31:57.324Z,1026.39
2018-12-15T04:32:57.352Z,1026.36
2018-12-15T04:33:57.357Z,1026.40
2018-12-15T04:34:57.376Z,1026.37
2018-12-15T04:35:57.389Z,1026.39
2018-12-15T04:36:57.401Z,1026.38
2018-12-15T04:37:57.440Z,1026.37
2018-12-15T04:38:57.440Z,1026.34
2018-12-15T04:39:57.460Z,1026.39
2018-12-15T04:40:57.468Z,1026.35
2018-12-15T04:41:57.498Z,1026.37
2018-12-15T04:42:57.524Z,1026.38
2018-12-15T04:43:57.532Z,1026.35
2018-12-15T04:44:57.537Z,1026.39
2018-12-15T04:45:57.566Z,1026.40
2018-12-15T04:46:57.576Z,1026.37
2018-12-15T04:47:57.593Z,1026.38
2018-12-15T04:48:57.609Z,1026.40
2018-12-15T04:49:57.631Z,1026.41
2018-12-15T04:50:57.638Z,1026.43
2018-12-15T04:51:57.662Z,1026.40
2018-12-15T04:52:57.682Z,1026.47
2018-12-15T04:53:57.713Z,1026.48
2018-12-15T04:54:57.711Z,1026.50
2018-12-15T04:55:57.721Z,1026.45
2018-12-15T04:56:57.750Z,1026.50
2018-12-15T04:57:57.778Z,1026.52
2018-12-15T04:58:57.817Z,1026.47
2018-12-15T04:59:57.797Z,1026.48
2018-12-15T05:00:57.809Z,1026.50
2018-12-15T05:01:57.829Z,1026.48
2018-12-15T05:02:57.837Z,1026.48
2018-12-15T05:03:57.882Z,1026.48
2018-12-15T05:04:57.883Z,1026.45
2018-12-15T05:05:57.900Z,1026.46
2018-12-15T05:06:57.923Z,1026.43
2018-12-15T05:07:57.933Z,1026.42
2018-12-15T05:08:57.955Z,1026.46
2018-12-15T05:09:57.960Z,1026.45
2018-12-15T05:10:57.981Z,1026.44
2018-12-15T05:11:57.997Z,1026.43
2018-12-15T05:12:58.016Z,1026.45
2018-12-15T05:13:58.050Z,1026.42
2018-12-15T05:14:58.054Z,1026.44
2018-12-15T05:15:58.064Z,1026.44
2018-12-15T05:16:58.090Z,1026.41
2018-12-15T05:17:58.097Z,1026.39
2018-12-15T05:18:58.121Z,1026.42
2018-12-15T05:19:58.141Z,1026.42
2018-12-15T05:20:58.157Z,1026.41
2018-12-15T05:21:58.168Z,1026.39
2018-12-15T05:22:58.218Z,1026.40
2018-12-15T05:23:58.199Z,1026.46
2018-12-15T05:24:58.223Z,1026.44
2018-12-15T05:25:58.240Z,1026.46
2018-12-15T05:26:58.253Z,1026.43
2018-12-15T05:27:58.274Z,1026.45
2018-12-15T05:28:58.295Z,1026.43
2018-12-15T05:29:58.307Z,1026.46
2018-12-15T05:30:58.321Z,1026.45
2018-12-15T05:31:58.337Z,1026.47
2018-12-15T05:32:58.356Z,1026.41
2018-12-15T05:33:58.371Z,1026.44
2018-12-15T05:34:58.408Z,1026.43
2018-12-15T05:35:58.415Z,1026.42
2018-12-15T05:36:58.441Z,1026.43
2018-12-15T05:37:58.442Z,1026.43
2018-12-15T05:38:58.457Z,1026.45
2018-12-15T05:39:58.480Z,1026.46
2018-12-15T05:40:58.491Z,1026.45
2018-12-15T05:41:58.510Z,1026.44
2018-12-15T05:42:58.528Z,1026.46
2018-12-15T05:43:58.537Z,1026.46
2018-12-15T05:44:58.566Z,1026.48
2018-12-15T05:45:58.576Z,1026.57
2018-12-15T05:46:58.591Z,1026.54
2018-12-15T05:47:58.612Z,1026.54
2018-12-15T05:48:58.630Z,1026.52
2018-12-15T05:49:58.649Z,1026.53
2018-12-15T05:50:58.666Z,1026.52
2018-12-15T05:51:58.675Z,1026.50
2018-12-15T05:52:58.703Z,1026.47
2018-12-15T05:53:58.711Z,1026.47
2018-12-15T05:54:58.737Z,1026.51
2018-12-15T05:55:58.747Z,1026.50
2018-12-15T05:56:58.773Z,1026.53
2018-12-15T05:57:58.780Z,1026.53
2018-12-15T05:58:58.801Z,1026.50
2018-12-15T05:59:58.823Z,1026.48
2018-12-15T06:00:58.842Z,1026.49
2018-12-15T06:01:58.847Z,1026.48
2018-12-15T06:02:58.873Z,1026.53
2018-12-15T06:03:58.880Z,1026.50
2018-12-15T06:04:58.904Z,1026.51
2018-12-15T06:05:58.938Z,1026.52
2018-12-15T06:06:58.938Z,1026.50
2018-12-15T06:07:58.954Z,1026.47
2018-12-15T06:08:58.976Z,1026.49
2018-12-15T06:09:58.984Z,1026.51
2018-12-15T06:10:59.006Z,1026.53
2018-12-15T06:11:59.020Z,1026.54
2018-12-15T06:12:59.042Z,1026.57
2018-12-15T06:13:59.053Z,1026.53
2018-12-15T06:14:59.066Z,1026.53
2018-12-15T06:15:59.093Z,1026.56
2018-12-15T06:16:59.111Z,1026.54
2018-12-15T06:17:59.125Z,1026.57
2018-12-15T06:18:59.137Z,1026.60
2018-12-15T06:19:59.175Z,1026.58
2018-12-15T06:20:59.179Z,1026.54
2018-12-15T06:21:59.201Z,1026.54
2018-12-15T06:22:59.204Z,1026.55
2018-12-15T06:23:59.223Z,1026.56
2018-12-15T06:24:59.239Z,1026.54
2018-12-15T06:25:59.281Z,1026.57
2018-12-15T06:26:59.277Z,1026.63
2018-12-15T06:27:59.295Z,1026.64
2018-12-15T06:28:59.306Z,1026.65
2018-12-15T06:29:59.331Z,1026.66
2018-12-15T06:30:59.342Z,1026.69
2018-12-15T06:31:59.358Z,1026.66
2018-12-15T06:32:59.371Z,1026.71
2018-12-15T06:33:59.400Z,1026.67
2018-12-15T06:34:59.410Z,1026.73
2018-12-15T06:35:59.424Z,1026.69
2018-12-15T06:36:59.451Z,1026.70
2018-12-15T06:37:59.461Z,1026.70
2018-12-15T06:38:59.484Z,1026.71
2018-12-15T06:39:59.492Z,1026.70
2018-12-15T06:40:59.512Z,1026.70
2018-12-15T06:41:59.532Z,1026.67
2018-12-15T06:42:59.550Z,1026.67
2018-12-15T06:43:59.556Z,1026.71
2018-12-15T06:44:59.592Z,1026.70
2018-12-15T06:45:59.600Z,1026.69
2018-12-15T06:46:59.629Z,1026.73
2018-12-15T06:47:59.633Z,1026.69
2018-12-15T06:48:59.652Z,1026.71
2018-12-15T06:49:59.656Z,1026.72
2018-12-15T06:51:00.140Z,1026.73
2018-12-15T06:51:59.698Z,1026.75
2018-12-15T06:52:59.734Z,1026.71
2018-12-15T06:53:59.743Z,1026.76
2018-12-15T06:54:59.759Z,1026.74
2018-12-15T06:55:59.765Z,1026.77
2018-12-15T06:56:59.787Z,1026.77
2018-12-15T06:57:59.817Z,1026.82
2018-12-15T06:58:59.903Z,1026.81
2018-12-15T06:59:59.831Z,1026.82
2018-12-15T07:00:59.857Z,1026.81
2018-12-15T07:01:59.869Z,1026.84
2018-12-15T07:02:59.892Z,1026.81
2018-12-15T07:03:59.900Z,1026.81
2018-12-15T07:04:59.929Z,1026.80
2018-12-15T07:05:59.935Z,1026.80
2018-12-15T07:06:59.961Z,1026.86
2018-12-15T07:07:59.969Z,1026.86
2018-12-15T07:08:59.988Z,1026.87
2018-12-15T07:10:00.027Z,1026.86
2018-12-15T07:11:00.036Z,1026.87
2018-12-15T07:12:00.041Z,1026.87
2018-12-15T07:13:00.049Z,1026.85
2018-12-15T07:14:00.076Z,1026.85
2018-12-15T07:15:00.094Z,1026.86
2018-12-15T07:16:00.115Z,1026.86
2018-12-15T07:17:00.132Z,1026.90
2018-12-15T07:18:00.144Z,1026.88
2018-12-15T07:19:00.162Z,1026.86
2018-12-15T07:20:00.181Z,1026.84
2018-12-15T07:21:00.194Z,1026.86
2018-12-15T07:22:00.214Z,1026.89
2018-12-15T07:23:00.229Z,1026.85
2018-12-15T07:24:00.250Z,1026.84
2018-12-15T07:25:00.266Z,1026.83
2018-12-15T07:26:00.286Z,1026.84
2018-12-15T07:27:00.298Z,1026.86
2018-12-15T07:28:00.314Z,1026.85
2018-12-15T07:29:00.336Z,1026.84
2018-12-15T07:30:00.343Z,1026.83
2018-12-15T07:31:00.374Z,1026.88
2018-12-15T07:32:00.387Z,1026.86
2018-12-15T07:33:00.393Z,1026.87
2018-12-15T07:34:00.425Z,1026.87
2018-12-15T07:35:01.127Z,1026.86
2018-12-15T07:36:00.453Z,1026.85
2018-12-15T07:37:00.469Z,1026.88
2018-12-15T07:38:00.483Z,1026.84
2018-12-15T07:39:00.534Z,1026.85
2018-12-15T07:40:00.513Z,1026.83
2018-12-15T07:41:00.542Z,1026.82
2018-12-15T07:42:00.563Z,1026.87
2018-12-15T07:43:00.564Z,1026.85
2018-12-15T07:44:00.618Z,1026.86
2018-12-15T07:45:00.603Z,1026.87
2018-12-15T07:46:00.981Z,1026.85
2018-12-15T07:47:00.633Z,1026.85
2018-12-15T07:48:00.650Z,1026.86
2018-12-15T07:49:00.674Z,1026.87
2018-12-15T07:50:00.695Z,1026.88
2018-12-15T07:51:00.721Z,1026.90
2018-12-15T07:52:00.728Z,1026.89
2018-12-15T07:53:00.748Z,1026.90
2018-12-15T07:54:00.756Z,1026.86
2018-12-15T07:55:00.776Z,1026.90
2018-12-15T07:56:00.788Z,1026.91
2018-12-15T07:57:00.802Z,1026.90
2018-12-15T07:58:00.818Z,1026.88
2018-12-15T07:59:00.838Z,1026.93
2018-12-15T08:00:00.871Z,1026.95
2018-12-15T08:01:00.883Z,1026.93
2018-12-15T08:02:00.896Z,1026.93
2018-12-15T08:03:00.914Z,1026.95
2018-12-15T08:04:00.985Z,1026.96
2018-12-15T08:05:00.935Z,1026.94
2018-12-15T08:06:00.961Z,1026.98
2018-12-15T08:07:00.972Z,1026.98
2018-12-15T08:08:01.000Z,1026.99
2018-12-15T08:09:01.015Z,1027.01
2018-12-15T08:10:01.044Z,1027.00
2018-12-15T08:11:01.046Z,1026.96
2018-12-15T08:12:01.076Z,1026.96
2018-12-15T08:13:01.088Z,1026.99
2018-12-15T08:14:01.098Z,1026.99
2018-12-15T08:15:01.112Z,1027.00
2018-12-15T08:16:01.135Z,1026.98
2018-12-15T08:17:01.148Z,1026.97
2018-12-15T08:18:01.165Z,1026.98
2018-12-15T08:19:01.180Z,1026.97
2018-12-15T08:20:01.200Z,1027.02
2018-12-15T08:21:01.225Z,1027.00
2018-12-15T08:22:01.251Z,1027.01
2018-12-15T08:23:01.252Z,1026.96
2018-12-15T08:24:01.270Z,1026.98
2018-12-15T08:25:01.281Z,1026.98
2018-12-15T08:26:01.307Z,1026.97
2018-12-15T08:27:01.310Z,1026.98
2018-12-15T08:28:01.346Z,1027.01
2018-12-15T08:29:01.430Z,1026.99
2018-12-15T08:30:01.367Z,1026.99
2018-12-15T08:31:01.413Z,1027.02
2018-12-15T08:32:01.419Z,1026.99
2018-12-15T08:33:01.427Z,1026.97
2018-12-15T08:34:01.435Z,1026.98
2018-12-15T08:35:01.452Z,1026.96
2018-12-15T08:36:01.473Z,1026.99
2018-12-15T08:37:01.495Z,1026.94
2018-12-15T08:38:01.509Z,1026.95
2018-12-15T08:39:01.525Z,1026.97
2018-12-15T08:40:01.553Z,1026.98
2018-12-15T08:41:01.586Z,1027.00
2018-12-15T08:42:01.584Z,1027.00
2018-12-15T08:43:01.595Z,1026.99
2018-12-15T08:44:01.605Z,1027.02
2018-12-15T08:45:01.643Z,1027.04
2018-12-15T08:46:01.640Z,1027.04
2018-12-15T08:47:01.665Z,1027.02
2018-12-15T08:48:01.687Z,1027.04
2018-12-15T08:49:04.623Z,1027.05
2018-12-15T08:50:01.712Z,1027.02
2018-12-15T08:51:01.724Z,1027.05
2018-12-15T08:52:01.776Z,1027.05
2018-12-15T08:53:01.868Z,1026.98
2018-12-15T08:54:01.780Z,1026.97
2018-12-15T08:55:01.805Z,1026.97
2018-12-15T08:56:01.813Z,1026.96
2018-12-15T08:57:01.841Z,1026.97
2018-12-15T08:58:01.851Z,1026.97
2018-12-15T08:59:01.882Z,1026.98
2018-12-15T09:00:01.888Z,1026.94
2018-12-15T09:01:01.896Z,1026.95
2018-12-15T09:02:01.924Z,1026.95
2018-12-15T09:03:01.954Z,1026.93
2018-12-15T09:04:01.960Z,1026.92
2018-12-15T09:05:01.981Z,1026.90
2018-12-15T09:06:01.993Z,1026.93
2018-12-15T09:07:01.997Z,1026.92
2018-12-15T09:08:02.032Z,1026.92
2018-12-15T09:09:02.044Z,1026.93
2018-12-15T09:10:02.054Z,1026.94
2018-12-15T09:11:02.066Z,1026.98
2018-12-15T09:12:02.101Z,1026.97
2018-12-15T09:13:02.451Z,1026.97
2018-12-15T09:14:02.123Z,1026.95
2018-12-15T09:15:02.141Z,1026.91
2018-12-15T09:16:02.163Z,1026.95
2018-12-15T09:17:02.177Z,1026.92
2018-12-15T09:18:02.197Z,1026.93
2018-12-15T09:19:02.221Z,1026.90
2018-12-15T09:20:02.238Z,1026.95
2018-12-15T09:21:02.241Z,1026.95
2018-12-15T09:22:02.283Z,1026.92
2018-12-15T09:23:02.284Z,1026.90
2018-12-15T09:24:02.313Z,1026.89
2018-12-15T09:25:02.311Z,1026.92
2018-12-15T09:26:02.337Z,1026.91
2018-12-15T09:27:02.350Z,1026.89
2018-12-15T09:28:02.384Z,1026.90
2018-12-15T09:29:02.393Z,1026.89
2018-12-15T09:30:02.402Z,1026.92
2018-12-15T09:31:02.416Z,1026.91
2018-12-15T09:32:02.466Z,1026.89
2018-12-15T09:33:02.496Z,1026.90
2018-12-15T09:34:02.473Z,1026.85
2018-12-15T09:35:02.479Z,1026.88
2018-12-15T09:36:02.510Z,1026.89
2018-12-15T09:37:02.515Z,1026.88
2018-12-15T09:38:02.547Z,1026.86
2018-12-15T09:39:02.547Z,1026.84
2018-12-15T09:40:02.587Z,1026.84
2018-12-15T09:41:02.592Z,1026.85
2018-12-15T09:42:02.610Z,1026.84
2018-12-15T09:43:02.624Z,1026.84
2018-12-15T09:44:02.674Z,1026.81
2018-12-15T09:45:02.663Z,1026.82
2018-12-15T09:46:02.687Z,1026.82
2018-12-15T09:47:02.694Z,1026.87
2018-12-15T09:48:02.711Z,1026.84
2018-12-15T09:49:02.728Z,1026.90
2018-12-15T09:50:02.751Z,1026.85
2018-12-15T09:51:02.755Z,1026.85
2018-12-15T09:52:02.778Z,1026.85
2018-12-15T09:53:02.799Z,1026.85
2018-12-15T09:54:02.813Z,1026.80
2018-12-15T09:55:02.831Z,1026.82
2018-12-15T09:56:02.851Z,1026.86
2018-12-15T09:57:02.916Z,1026.82
2018-12-15T09:58:02.887Z,1026.82
2018-12-15T09:59:02.903Z,1026.79
2018-12-15T10:00:02.915Z,1026.82
2018-12-15T10:01:02.933Z,1026.79
2018-12-15T10:02:02.966Z,1026.76
2018-12-15T10:03:02.983Z,1026.78
2018-12-15T10:04:02.984Z,1026.76
2018-12-15T10:05:03.002Z,1026.81
2018-12-15T10:06:03.022Z,1026.74
2018-12-15T10:07:03.038Z,1026.77
2018-12-15T10:08:03.065Z,1026.74
2018-12-15T10:09:03.076Z,1026.76
2018-12-15T10:10:03.089Z,1026.73
2018-12-15T10:11:03.107Z,1026.74
2018-12-15T10:12:03.144Z,1026.74
2018-12-15T10:13:03.186Z,1026.72
2018-12-15T10:14:03.196Z,1026.65
2018-12-15T10:15:03.202Z,1026.68
2018-12-15T10:16:03.219Z,1026.68
2018-12-15T10:17:03.218Z,1026.67
2018-12-15T10:18:03.234Z,1026.63
2018-12-15T10:19:03.246Z,1026.60
2018-12-15T10:20:03.269Z,1026.61
2018-12-15T10:21:03.280Z,1026.60
2018-12-15T10:22:03.317Z,1026.58
2018-12-15T10:23:03.351Z,1026.57
2018-12-15T10:24:03.351Z,1026.55
2018-12-15T10:25:03.352Z,1026.50
2018-12-15T10:26:03.422Z,1026.52
2018-12-15T10:27:03.386Z,1026.48
2018-12-15T10:28:03.460Z,1026.49
2018-12-15T10:29:03.411Z,1026.47
2018-12-15T10:30:03.480Z,1026.44
2018-12-15T10:31:03.471Z,1026.41
2018-12-15T10:32:03.486Z,1026.41
2018-12-15T10:33:03.520Z,1026.42
2018-12-15T10:34:03.510Z,1026.39
2018-12-15T10:35:03.543Z,1026.40
2018-12-15T10:36:03.568Z,1026.36
2018-12-15T10:37:04.447Z,1026.35
2018-12-15T10:38:03.583Z,1026.35
2018-12-15T10:39:03.600Z,1026.34
2018-12-15T10:40:03.612Z,1026.32
2018-12-15T10:41:03.654Z,1026.31
2018-12-15T10:42:03.662Z,1026.33
2018-12-15T10:43:03.670Z,1026.30
2018-12-15T10:44:03.676Z,1026.32
2018-12-15T10:45:03.708Z,1026.29
2018-12-15T10:46:03.720Z,1026.29
2018-12-15T10:47:03.738Z,1026.28
2018-12-15T10:48:03.747Z,1026.28
2018-12-15T10:49:03.767Z,1026.26
2018-12-15T10:50:03.782Z,1026.23
2018-12-15T10:51:03.833Z,1026.28
2018-12-15T10:52:03.821Z,1026.27
2018-12-15T10:53:03.840Z,1026.25
2018-12-15T10:54:03.903Z,1026.24
2018-12-15T10:55:03.881Z,1026.22
2018-12-15T10:56:03.904Z,1026.21
2018-12-15T10:57:03.919Z,1026.19
2018-12-15T10:58:03.920Z,1026.26
2018-12-15T10:59:03.944Z,1026.26
2018-12-15T11:00:03.953Z,1026.25
2018-12-15T11:01:03.977Z,1026.24
2018-12-15T11:02:03.992Z,1026.20
2018-12-15T11:03:04.010Z,1026.24
2018-12-15T11:04:04.028Z,1026.22
2018-12-15T11:05:04.041Z,1026.21
2018-12-15T11:06:04.072Z,1026.25
2018-12-15T11:07:04.079Z,1026.25
2018-12-15T11:08:04.098Z,1026.23
2018-12-15T11:09:04.116Z,1026.18
2018-12-15T11:10:04.134Z,1026.22
2018-12-15T11:11:04.155Z,1026.19
2018-12-15T11:12:04.165Z,1026.17
2018-12-15T11:13:04.186Z,1026.18
2018-12-15T11:14:04.225Z,1026.15
2018-12-15T11:15:04.217Z,1026.15
2018-12-15T11:16:04.255Z,1026.12
2018-12-15T11:17:04.252Z,1026.10
2018-12-15T11:18:04.268Z,1026.11
2018-12-15T11:19:04.289Z,1026.07
2018-12-15T11:20:04.303Z,1026.10
2018-12-15T11:21:04.335Z,1026.14
2018-12-15T11:22:04.395Z,1026.11
2018-12-15T11:23:04.364Z,1026.08
2018-12-15T11:24:04.377Z,1026.04
2018-12-15T11:25:04.384Z,1026.02
2018-12-15T11:26:04.419Z,1026.02
2018-12-15T11:27:04.434Z,1026.00
2018-12-15T11:28:04.442Z,1026.01
2018-12-15T11:29:04.462Z,1025.99
2018-12-15T11:30:04.481Z,1025.96
2018-12-15T11:31:04.516Z,1025.97
2018-12-15T11:32:04.511Z,1025.96
2018-12-15T11:33:04.535Z,1025.94
2018-12-15T11:34:04.550Z,1025.91
2018-12-15T11:35:04.574Z,1025.92
2018-12-15T11:36:04.592Z,1025.91
2018-12-15T11:37:04.603Z,1025.87
2018-12-15T11:38:04.618Z,1025.85
2018-12-15T11:39:04.641Z,1025.89
2018-12-15T11:40:04.654Z,1025.88
2018-12-15T11:41:04.677Z,1025.85
2018-12-15T11:42:04.699Z,1025.87
2018-12-15T11:43:04.711Z,1025.90
2018-12-15T11:44:04.719Z,1025.91
2018-12-15T11:45:04.770Z,1025.93
2018-12-15T11:46:04.765Z,1025.92
2018-12-15T11:47:04.776Z,1025.92
2018-12-15T11:48:04.796Z,1025.95
2018-12-15T11:49:04.819Z,1025.95
2018-12-15T11:50:04.831Z,1025.94
2018-12-15T11:52:04.864Z,1025.96
2018-12-15T11:53:04.931Z,1025.94
2018-12-15T11:54:04.897Z,1025.93
2018-12-15T11:55:04.929Z,1025.94
2018-12-15T11:56:04.990Z,1025.93
2018-12-15T11:57:05.066Z,1025.92
2018-12-15T11:58:05.176Z,1025.87
2018-12-15T11:59:05.112Z,1025.86
2018-12-15T12:00:05.010Z,1025.83
2018-12-15T12:01:05.254Z,1025.83
2018-12-15T12:02:05.068Z,1025.81
2018-12-15T12:03:05.112Z,1025.77
2018-12-15T12:05:05.123Z,1025.76
2018-12-15T12:06:05.135Z,1025.75
2018-12-15T12:07:05.170Z,1025.79
2018-12-15T12:08:05.191Z,1025.77